Weather History for Land O' Lakes, WI

Change the Weather History Date:

Thursday, February 28, 2013

  Actual Average (KEGV) Record (KEGV)
Temperature  
Mean Temperature 24 °F -  
Max Temperature 28 °F 33 °F 48 °F (2004)
Min Temperature 19 °F 11 °F -27 °F (2014)
Degree Days  
Heating Degree Days 42    
Moisture  
Dew Point 19 °F    
Average Humidity 81    
Maximum Humidity 93    
Minimum Humidity 68    
Precipitation  
Precipitation 0.00 in - - ()
Sea Level Pressure  
Sea Level Pressure 30.04 in    
Wind  
Wind Speed 12 mph (NNE)    
Max Wind Speed 20 mph    
Max Gust Speed 25 mph    
Visibility 8 miles    
Events Snow    
Averages and records for this station are not official NWS values.
T = Trace of Precipitation, MM = Missing Value Source: NWS Daily Summary

Daily Weather History Graph

Daily Weather History Graph

Search for Another Location

Airport:

Trip Planner

Search our weather history database for the weather conditions in past years. The results will help you decide how hot, cold, wet, or windy it might be!

Date:

Astronomy

Feb. 28, 2013 Rise Set
Actual Time 6:37 AM CST 5:42 PM CST
Civil Twilight 6:07 AM CST 6:12 PM CST
Nautical Twilight 5:32 AM CST 6:46 PM CST
Astronomical Twilight 4:57 AM CST 7:21 PM CST
Moon 9:24 PM CST (2/28) 7:33 AM CST (2/28)
Length of Visible Light 12h 05m
Length of Day
11h 05m
Waning Gibbous, 90% of the Moon is Illuminated
Feb 28
Waning Gibbous
Mar 4
Last Quarter
Mar 11
New
Mar 19
First Quarter
Mar 27
Full

Hourly Weather History & Observations

Time (CST) Temp. Windchill Dew Point Humidity Pressure Visibility Wind Dir Wind Speed Gust Speed Precip Events Conditions
12:15 AM 28.4 °F 19.7 °F 26.6 °F 93% 29.88 in 10.0 mi North 9.2 mph 17.3 mph N/A   Overcast
12:35 AM 28.4 °F 18.5 °F 26.6 °F 93% 29.89 in 7.0 mi North 11.5 mph - N/A   Overcast
12:55 AM 28.4 °F 18.5 °F 26.6 °F 93% 29.89 in 10.0 mi North 11.5 mph - N/A   Overcast
1:15 AM 28.4 °F 18.0 °F 26.6 °F 93% 29.89 in 10.0 mi North 12.7 mph 21.9 mph N/A   Overcast
1:35 AM 28.4 °F 19.1 °F 26.6 °F 93% 29.89 in 10.0 mi North 10.4 mph 18.4 mph N/A   Overcast
1:55 AM 28.4 °F 19.1 °F 26.6 °F 93% 29.90 in 10.0 mi North 10.4 mph 18.4 mph N/A   Overcast
2:15 AM 28.4 °F 15.8 °F 24.8 °F 86% 29.89 in 10.0 mi NNE 18.4 mph 24.2 mph N/A   Overcast
2:35 AM 28.4 °F 18.0 °F 24.8 °F 86% 29.90 in 7.0 mi North 12.7 mph 21.9 mph N/A   Overcast
2:55 AM 28.4 °F 18.5 °F 24.8 °F 86% 29.90 in 10.0 mi NNE 11.5 mph 18.4 mph N/A   Overcast
3:15 AM 28.4 °F 18.0 °F 24.8 °F 86% 29.90 in 10.0 mi North 12.7 mph 21.9 mph N/A   Overcast
3:35 AM 26.6 °F 15.7 °F 24.8 °F 93% 29.91 in 7.0 mi North 12.7 mph 20.7 mph N/A   Overcast
3:55 AM 26.6 °F 16.2 °F 24.8 °F 93% 29.91 in 7.0 mi North 11.5 mph 17.3 mph N/A   Overcast
4:15 AM 26.6 °F 15.7 °F 24.8 °F 93% 29.92 in 7.0 mi North 12.7 mph 21.9 mph N/A   Overcast
4:35 AM 26.6 °F 16.2 °F 23.0 °F 86% 29.92 in 5.0 mi North 11.5 mph 19.6 mph N/A   Overcast
4:55 AM 26.6 °F 15.2 °F 23.0 °F 86% 29.93 in 5.0 mi NNE 13.8 mph 19.6 mph N/A   Overcast
5:15 AM 26.6 °F 15.2 °F 23.0 °F 86% 29.94 in 4.0 mi North 13.8 mph 17.3 mph N/A   Overcast
5:35 AM 26.6 °F 17.5 °F 24.8 °F 93% 29.94 in 5.0 mi NNE 9.2 mph 17.3 mph N/A   Overcast
5:55 AM 26.6 °F 15.2 °F 23.0 °F 86% 29.95 in 5.0 mi North 13.8 mph 20.7 mph N/A   Overcast
6:15 AM 26.6 °F 16.2 °F 23.0 °F 86% 29.96 in 5.0 mi North 11.5 mph - N/A   Overcast
6:35 AM 26.6 °F 15.7 °F 23.0 °F 86% 29.96 in 5.0 mi NNE 12.7 mph 21.9 mph N/A Snow Light Snow
6:55 AM 26.6 °F 16.8 °F 23.0 °F 86% 29.97 in 7.0 mi NNE 10.4 mph 17.3 mph N/A Snow Light Snow
7:15 AM 24.8 °F 12.9 °F 23.0 °F 93% 29.98 in 3.0 mi North 13.8 mph - N/A Snow Light Snow
7:35 AM 24.8 °F 13.4 °F 21.2 °F 86% 29.99 in 3.0 mi North 12.7 mph 20.7 mph N/A   Overcast
7:55 AM 24.8 °F 12.9 °F 21.2 °F 86% 30.00 in 5.0 mi NNE 13.8 mph 18.4 mph N/A   Overcast
8:15 AM 24.8 °F 14.0 °F 21.2 °F 86% 30.00 in 10.0 mi NNE 11.5 mph 17.3 mph N/A   Overcast
8:35 AM 24.8 °F 12.9 °F 21.2 °F 86% 30.00 in 5.0 mi NNE 13.8 mph 20.7 mph N/A   Overcast
8:55 AM 24.8 °F 12.4 °F 21.2 °F 86% 30.01 in 5.0 mi NNE 15.0 mph 23.0 mph N/A   Overcast
9:15 AM 24.8 °F 12.9 °F 21.2 °F 86% 30.01 in 7.0 mi NNE 13.8 mph 20.7 mph N/A   Overcast
9:35 AM 24.8 °F 13.4 °F 19.4 °F 80% 30.01 in 4.0 mi NNE 12.7 mph 23.0 mph N/A Snow Light Snow
9:55 AM 24.8 °F 11.1 °F 19.4 °F 80% 30.02 in 4.0 mi NNE 18.4 mph 24.2 mph N/A Snow Light Snow
10:15 AM 24.8 °F 11.9 °F 19.4 °F 80% 30.03 in 5.0 mi NNE 16.1 mph 20.7 mph N/A Snow Light Snow
10:35 AM 24.8 °F 10.7 °F 19.4 °F 80% 30.03 in 7.0 mi NNE 19.6 mph 24.2 mph N/A   Overcast
10:55 AM 23.0 °F 11.7 °F 17.6 °F 80% 30.03 in 4.0 mi NNE 11.5 mph 23.0 mph N/A Snow Light Snow
11:15 AM 24.8 °F 11.5 °F 17.6 °F 74% 30.04 in 2.5 mi NE 17.3 mph 25.3 mph N/A Snow Light Snow
11:35 AM 23.0 °F 9.6 °F 17.6 °F 80% 30.05 in 4.0 mi North 16.1 mph 20.7 mph N/A Snow Light Snow
11:55 AM 24.8 °F 11.5 °F 17.6 °F 74% 30.05 in 5.0 mi NE 17.3 mph 23.0 mph N/A Snow Light Snow
12:15 PM 24.8 °F 12.4 °F 17.6 °F 74% 30.06 in 5.0 mi NNE 15.0 mph 23.0 mph N/A Snow Light Snow
12:35 PM 24.8 °F 14.0 °F 17.6 °F 74% 30.06 in 7.0 mi NE 11.5 mph 19.6 mph N/A Snow Light Snow
12:55 PM 24.8 °F 14.6 °F 17.6 °F 74% 30.06 in 7.0 mi NNE 10.4 mph 21.9 mph N/A Snow Light Snow
1:15 PM 24.8 °F 11.5 °F 17.6 °F 74% 30.06 in 5.0 mi NNE 17.3 mph 24.2 mph N/A Snow Light Snow
1:35 PM 24.8 °F 12.9 °F 17.6 °F 74% 30.06 in 7.0 mi North 13.8 mph 20.7 mph N/A Snow Light Snow
1:55 PM 24.8 °F 12.9 °F 17.6 °F 74% 30.06 in 5.0 mi NNE 13.8 mph 17.3 mph N/A Snow Light Snow
2:15 PM 24.8 °F 13.4 °F 17.6 °F 74% 30.07 in 10.0 mi NNE 12.7 mph 21.9 mph N/A   Overcast
2:35 PM 24.8 °F 12.4 °F 17.6 °F 74% 30.07 in 7.0 mi North 15.0 mph 18.4 mph N/A Snow Light Snow
2:55 PM 24.8 °F 12.9 °F 17.6 °F 74% 30.08 in 5.0 mi North 13.8 mph 23.0 mph N/A Snow Light Snow
3:15 PM 24.8 °F 13.4 °F 15.8 °F 69% 30.08 in 7.0 mi NNE 12.7 mph 23.0 mph N/A   Overcast
3:35 PM 23.0 °F 10.1 °F 15.8 °F 74% 30.08 in 10.0 mi NNE 15.0 mph 19.6 mph N/A Snow Light Snow
3:55 PM 23.0 °F 11.1 °F 15.8 °F 74% 30.09 in 10.0 mi NNE 12.7 mph 16.1 mph N/A   Overcast
4:15 PM 23.0 °F 9.6 °F 17.6 °F 80% 30.10 in 10.0 mi NNE 16.1 mph 19.6 mph N/A Snow Light Snow
4:35 PM 23.0 °F 11.1 °F 14.0 °F 68% 30.10 in 10.0 mi NNE 12.7 mph 18.4 mph N/A   Overcast
5:15 PM 23.0 °F 13.1 °F 14.0 °F 68% 30.12 in 10.0 mi NE 9.2 mph 16.1 mph N/A   Overcast
5:35 PM 21.2 °F 10.1 °F 14.0 °F 74% 30.13 in 10.0 mi NNE 10.4 mph 18.4 mph N/A   Overcast
5:55 PM 21.2 °F 11.7 °F 14.0 °F 74% 30.13 in 10.0 mi NE 8.1 mph 17.3 mph N/A Snow Light Snow
6:15 PM 21.2 °F 10.9 °F 14.0 °F 74% 30.14 in 10.0 mi NNE 9.2 mph 20.7 mph N/A Snow Light Snow
6:35 PM 21.2 °F 10.1 °F 14.0 °F 74% 30.14 in 10.0 mi NNE 10.4 mph 18.4 mph N/A Snow Light Snow
6:55 PM 21.2 °F 8.3 °F 14.0 °F 74% 30.15 in 10.0 mi NNE 13.8 mph 18.4 mph N/A Snow Light Snow
7:15 PM 21.2 °F 9.5 °F 14.0 °F 74% 30.15 in 10.0 mi NE 11.5 mph 21.9 mph N/A   Overcast
7:35 PM 19.4 °F 8.6 °F 14.0 °F 80% 30.15 in 10.0 mi NNE 9.2 mph 18.4 mph N/A   Overcast
7:55 PM 19.4 °F 6.0 °F 14.0 °F 80% 30.15 in 10.0 mi NNE 13.8 mph 18.4 mph N/A   Overcast
8:15 PM 19.4 °F 7.2 °F 14.0 °F 80% 30.16 in 10.0 mi NE 11.5 mph 17.3 mph N/A Snow Light Snow
8:35 PM 19.4 °F 7.9 °F 14.0 °F 80% 30.17 in 10.0 mi NE 10.4 mph - N/A Snow Light Snow
8:55 PM 19.4 °F 8.6 °F 14.0 °F 80% 30.17 in 10.0 mi NNE 9.2 mph - N/A Snow Light Snow
9:15 PM 21.2 °F 10.1 °F 14.0 °F 74% 30.17 in 10.0 mi NNE 10.4 mph - N/A   Overcast
9:35 PM 21.2 °F 11.7 °F 14.0 °F 74% 30.18 in 10.0 mi NNE 8.1 mph 17.3 mph N/A   Overcast
9:55 PM 21.2 °F 11.7 °F 14.0 °F 74% 30.18 in 10.0 mi NNE 8.1 mph - N/A   Overcast
10:15 PM 21.2 °F 10.9 °F 14.0 °F 74% 30.17 in 10.0 mi North 9.2 mph - N/A   Overcast
10:35 PM 19.4 °F 9.5 °F 14.0 °F 80% 30.17 in 10.0 mi NNE 8.1 mph - N/A   Overcast
10:55 PM 19.4 °F 9.5 °F 14.0 °F 80% 30.17 in 10.0 mi North 8.1 mph - N/A   Overcast
11:15 PM 19.4 °F 10.4 °F 14.0 °F 80% 30.17 in 10.0 mi North 6.9 mph - N/A   Overcast
11:35 PM 19.4 °F 11.5 °F 14.0 °F 80% 30.16 in 10.0 mi North 5.8 mph - N/A   Overcast
11:55 PM 19.4 °F 9.5 °F 12.2 °F 74% 30.17 in 10.0 mi North 8.1 mph - N/A   Overcast